This is the latest recevied weather packets stored in our database for station/object iz1wiy-3. If no packets are shown the sender has not sent any weather packets the latest 1 day(s).
| Time | Temp. | Humidity | Pressure | Rain* | Wind** | Luminosity | Snow |
|---|---|---|---|---|---|---|---|
| 1778036463 | 16.67° C | 88% | 1009.8 hPa | 0.25 mm | 3.13 m/s, 205° | - | - |
| 1778036404 | 17.22° C | 88% | 1009.8 hPa | 0.25 mm | 2.68 m/s, 204° | - | - |
| 1778036343 | 17.22° C | 88% | 1009.8 hPa | 0.25 mm | 2.68 m/s, 203° | - | - |
| 1778036285 | 16.67° C | 88% | 1009.9 hPa | 0.25 mm | 2.68 m/s, 202° | - | - |
| 1778036223 | 16.67° C | 88% | 1010 hPa | 0.51 mm | 2.68 m/s, 204° | - | - |
| 1778036163 | 16.67° C | 88% | 1009.7 hPa | 0.51 mm | 2.68 m/s, 206° | - | - |
| 1778036103 | 16.67° C | 88% | 1009.8 hPa | 0.51 mm | 2.24 m/s, 204° | - | - |
| 1778036043 | 16.67° C | 88% | 1009.7 hPa | 0.51 mm | 2.24 m/s, 206° | - | - |
| 1778035983 | 16.67° C | 88% | 1009.6 hPa | 0.51 mm | 2.24 m/s, 206° | - | - |
| 1778035923 | 16.67° C | 88% | 1009.6 hPa | 0.51 mm | 1.79 m/s, 207° | - | - |
| 1778035863 | 16.67° C | 88% | 1009.5 hPa | 0.51 mm | 1.79 m/s, 206° | - | - |
| 1778035803 | 16.67° C | 88% | 1009.6 hPa | 0.51 mm | 1.34 m/s, 206° | - | - |
| 1778035743 | 16.67° C | 88% | 1009.5 hPa | 0.76 mm | 1.34 m/s, 207° | - | - |
| 1778035683 | 16.67° C | 88% | 1009.4 hPa | 1.02 mm | 1.34 m/s, 208° | - | - |
| 1778035623 | 16.67° C | 88% | 1009.7 hPa | 1.52 mm | 0.89 m/s, 208° | - | - |
| 1778035563 | 16.67° C | 88% | 1009.6 hPa | 1.78 mm | 0.89 m/s, 208° | - | - |
| 1778035503 | 16.67° C | 88% | 1009.5 hPa | 1.78 mm | 0.89 m/s, 209° | - | - |
| 1778035443 | 16.67° C | 88% | 1009.6 hPa | 1.78 mm | 0.45 m/s, 206° | - | - |
| 1778035383 | 16.11° C | 88% | 1009.4 hPa | 1.78 mm | 0.45 m/s, 205° | - | - |
| 1778035323 | 16.11° C | 88% | 1009.6 hPa | 1.78 mm | 0.45 m/s, 202° | - | - |
| 1778035263 | 16.11° C | 88% | 1009.5 hPa | 1.78 mm | 0.45 m/s, 198° | - | - |
| 1778035203 | 16.11° C | 88% | 1009.6 hPa | 2.03 mm | 0.45 m/s, 201° | - | - |
| 1778035143 | 16.11° C | 88% | 1009.5 hPa | 2.03 mm | 0.45 m/s, 205° | - | - |
| 1778035084 | 16.11° C | 88% | 1009.5 hPa | 2.29 mm | 0.45 m/s, 208° | - | - |
| 1778035023 | 16.11° C | 88% | 1009.4 hPa | 2.54 mm | 0.45 m/s, 217° | - | - |
* Rain latest hour (hover to see other rain measurements)
** Current wind speed in m/s (hover to see current wind gust speed)